Time;durP1;ratioP1;P1;durP2;ratioP2;P2;SDS_P1;SDS_P2;PMS_P1;PMS_P2;Temp;Humidity;BMP_temperature;BMP_pressure;BME280_temperature;BME280_humidity;BME280_pressure;Samples;Min_cycle;Max_cycle;Signal;HPM_P1;HPM_P2
2022/05/21 00:02:02;;;;;;;4.30;3.90;;;21.20;99.90;;;;;;4993950;28;20204;-89
2022/05/21 00:04:37;;;;;;;5.60;4.47;;;21.20;99.90;;;;;;4993646;28;20226;-87
2022/05/21 00:07:05;;;;;;;4.57;4.13;;;21.10;99.90;;;;;;4994106;28;20207;-88
2022/05/21 00:09:35;;;;;;;5.28;4.78;;;20.90;99.90;;;;;;4994233;28;20216;-88
2022/05/21 00:12:04;;;;;;;4.38;4.00;;;20.90;99.90;;;;;;4994557;28;20208;-88
2022/05/21 00:14:34;;;;;;;9.95;4.40;;;20.70;99.90;;;;;;4994228;28;20251;-88
2022/05/21 00:17:03;;;;;;;4.68;4.28;;;20.50;99.90;;;;;;4994126;28;20211;-88
2022/05/21 00:19:32;;;;;;;5.03;4.38;;;20.20;99.90;;;;;;4994188;28;20231;-89
2022/05/21 00:22:00;;;;;;;7.22;4.43;;;19.90;99.90;;;;;;4993610;28;20230;-88
2022/05/21 00:24:32;;;;;;;5.13;4.40;;;19.70;99.90;;;;;;4994238;28;20224;-88
2022/05/21 00:27:03;;;;;;;4.80;4.35;;;19.50;99.90;;;;;;4994121;28;20220;-89
2022/05/21 00:29:34;;;;;;;5.13;4.65;;;19.50;99.90;;;;;;4994122;28;20262;-88
2022/05/21 00:32:03;;;;;;;5.88;4.97;;;19.40;99.90;;;;;;4993907;28;20258;-88
2022/05/21 00:34:34;;;;;;;4.80;4.07;;;19.40;99.90;;;;;;4993565;28;20235;-89
2022/05/21 00:37:03;;;;;;;4.45;3.80;;;19.50;99.90;;;;;;4993776;28;20207;-88
2022/05/21 00:39:32;;;;;;;4.63;3.67;;;19.50;99.90;;;;;;4993677;28;20204;-89
2022/05/21 00:42:07;;;;;;;11.88;4.15;;;19.50;99.90;;;;;;4993672;28;20204;-89
2022/05/21 00:44:35;;;;;;;5.30;3.95;;;19.40;99.90;;;;;;4994059;28;20235;-90
2022/05/21 00:47:04;;;;;;;4.38;3.92;;;19.30;99.90;;;;;;4994056;28;20203;-89
2022/05/21 00:49:34;;;;;;;7.13;4.40;;;19.20;99.90;;;;;;4993698;28;20223;-89
2022/05/21 00:52:11;;;;;;;5.25;4.35;;;19.10;99.90;;;;;;4993305;28;20258;-88
2022/05/21 00:54:45;;;;;;;4.20;3.80;;;19.00;99.90;;;;;;4993481;28;20227;-88
2022/05/21 00:57:22;;;;;;;4.60;4.20;;;18.80;99.90;;;;;;4993617;28;20203;-89
2022/05/21 00:59:57;;;;;;;4.40;4.00;;;18.80;99.90;;;;;;4993187;28;20207;-90
2022/05/21 01:02:30;;;;;;;4.57;4.15;;;18.80;99.90;;;;;;4993222;28;20215;-88
2022/05/21 01:05:04;;;;;;;5.60;4.40;;;18.70;99.90;;;;;;4993155;28;20298;-88
2022/05/21 01:07:33;;;;;;;8.30;5.32;;;18.70;99.90;;;;;;4993323;28;20211;-88
2022/05/21 01:10:02;;;;;;;6.97;5.15;;;18.60;99.90;;;;;;4992886;28;20246;-88
2022/05/21 01:12:39;;;;;;;5.45;3.85;;;18.60;99.90;;;;;;4993536;28;20204;-89
2022/05/21 01:15:13;;;;;;;4.32;3.97;;;18.60;99.90;;;;;;4993869;28;20204;-88
2022/05/21 01:17:43;;;;;;;4.63;4.22;;;18.70;99.90;;;;;;4993400;28;20210;-88
2022/05/21 01:20:16;;;;;;;5.85;4.30;;;18.60;99.90;;;;;;4993199;28;20200;-89
2022/05/21 01:22:47;;;;;;;5.95;5.13;;;18.60;99.90;;;;;;4993215;28;20231;-89
2022/05/21 01:25:18;;;;;;;5.78;4.90;;;18.70;99.90;;;;;;4993463;28;20223;-89
2022/05/21 01:27:48;;;;;;;5.32;4.60;;;18.80;99.90;;;;;;4993592;28;20204;-89
2022/05/21 01:30:21;;;;;;;6.63;4.97;;;18.80;99.90;;;;;;4992911;28;20220;-88
2022/05/21 01:32:53;;;;;;;5.30;4.80;;;18.80;99.90;;;;;;4992813;28;20262;-88
2022/05/21 01:35:21;;;;;;;4.95;4.50;;;18.90;99.90;;;;;;4992972;28;20273;-89
2022/05/21 01:37:51;;;;;;;5.40;4.90;;;18.90;99.90;;;;;;4992796;28;20282;-88
2022/05/21 01:40:22;;;;;;;5.65;5.13;;;18.90;99.90;;;;;;4993390;28;20211;-89
2022/05/21 01:44:37;;;;;;;5.05;4.55;;;18.90;99.90;;;;;;4992748;28;20251;-88
2022/05/21 01:45:41;;;;;;;5.30;4.80;;;18.90;99.90;;;;;;4992821;28;20290;-88
2022/05/21 01:48:10;;;;;;;5.30;4.80;;;18.90;99.90;;;;;;4993040;28;20290;-89
2022/05/21 01:50:39;;;;;;;4.57;4.18;;;18.90;99.90;;;;;;4992991;28;20227;-88
2022/05/21 01:53:10;;;;;;;9.48;5.10;;;18.90;99.90;;;;;;4992664;28;20223;-89
2022/05/21 01:55:39;;;;;;;6.05;4.93;;;18.90;99.90;;;;;;4992815;28;20204;-90
2022/05/21 01:58:07;;;;;;;4.18;3.53;;;18.90;99.90;;;;;;4992841;28;20200;-89
2022/05/21 02:00:36;;;;;;;5.03;4.63;;;19.00;99.90;;;;;;4992660;28;20203;-88
2022/05/21 02:03:05;;;;;;;4.22;3.92;;;18.90;99.90;;;;;;4993082;28;20227;-88
2022/05/21 02:05:34;;;;;;;6.07;5.47;;;18.90;99.90;;;;;;4992590;28;20204;-88
2022/05/21 02:08:03;;;;;;;4.82;4.43;;;19.00;99.90;;;;;;4993138;28;20270;-89
2022/05/21 02:10:34;;;;;;;5.25;4.85;;;18.90;99.90;;;;;;4992625;28;20228;-89
2022/05/21 02:13:03;;;;;;;7.32;4.70;;;19.00;99.90;;;;;;4995630;28;20231;-89
2022/05/21 02:15:31;;;;;;;5.40;4.90;;;19.00;99.90;;;;;;4996872;28;20258;-89
2022/05/21 02:18:00;;;;;;;5.80;5.22;;;19.00;99.90;;;;;;4996388;28;20203;-89
2022/05/21 02:20:28;;;;;;;4.13;3.80;;;19.00;99.90;;;;;;4996376;28;20207;-88
2022/05/21 02:22:57;;;;;;;4.85;4.38;;;19.00;99.90;;;;;;4996073;28;20282;-89
2022/05/21 02:25:25;;;;;;;4.55;4.15;;;19.00;99.90;;;;;;4996513;28;20215;-89
2022/05/21 02:27:55;;;;;;;5.00;4.18;;;19.00;99.90;;;;;;4996328;28;20212;-89
2022/05/21 02:30:24;;;;;;;4.57;4.18;;;19.10;99.90;;;;;;4995635;28;20224;-87
2022/05/21 02:32:53;;;;;;;4.97;4.40;;;19.00;99.90;;;;;;4995508;28;20230;-89
2022/05/21 02:35:21;;;;;;;4.30;3.90;;;19.00;99.90;;;;;;4995763;28;20200;-89
2022/05/21 02:40:36;;;;;;;4.55;4.15;;;19.00;99.90;;;;;;4995608;28;20227;-89
2022/05/21 02:43:06;;;;;;;5.10;4.63;;;18.90;99.90;;;;;;4995821;28;20270;-89
2022/05/21 02:45:34;;;;;;;5.40;3.88;;;19.00;99.90;;;;;;4996166;28;20224;-90
2022/05/21 02:48:05;;;;;;;6.53;4.22;;;19.00;99.90;;;;;;4995856;28;20212;-89
2022/05/21 02:50:35;;;;;;;5.07;4.68;;;19.00;99.90;;;;;;4995437;28;20231;-88
2022/05/21 02:53:06;;;;;;;5.03;4.35;;;19.00;99.90;;;;;;4995562;28;20223;-89
2022/05/21 02:55:35;;;;;;;5.38;4.28;;;18.90;99.90;;;;;;4995751;28;20274;-90
2022/05/21 02:58:05;;;;;;;4.10;3.80;;;18.80;99.90;;;;;;4995716;28;20210;-89
2022/05/21 03:00:34;;;;;;;4.72;4.15;;;18.70;99.90;;;;;;4996040;28;20207;-89
2022/05/21 03:03:08;;;;;;;5.63;4.43;;;18.70;99.90;;;;;;4996235;28;20219;-88
2022/05/21 03:05:37;;;;;;;7.03;3.75;;;18.60;99.90;;;;;;4996490;28;20203;-88
2022/05/21 03:10:52;;;;;;;5.57;4.03;;;18.50;99.90;;;;;;4994572;28;20227;-88
2022/05/21 03:13:23;;;;;;;5.75;3.17;;;18.40;99.90;;;;;;4995598;28;20243;-89
2022/05/21 03:15:57;;;;;;;6.13;3.63;;;18.30;99.90;;;;;;4995408;28;20211;-88
2022/05/21 03:18:25;;;;;;;5.40;3.55;;;18.20;99.90;;;;;;4995216;28;20206;-89
2022/05/21 03:20:54;;;;;;;6.93;3.13;;;18.10;99.90;;;;;;4995419;28;20200;-90
2022/05/21 03:23:22;;;;;;;2.88;2.65;;;18.10;99.90;;;;;;4994060;28;20234;-89
2022/05/21 03:25:52;;;;;;;3.58;3.28;;;18.00;99.90;;;;;;4995202;28;20215;-90
2022/05/21 03:28:22;;;;;;;3.58;2.95;;;18.00;99.90;;;;;;4995335;28;20215;-90
2022/05/21 03:30:51;;;;;;;3.95;3.55;;;18.00;99.90;;;;;;4994913;28;20224;-90
2022/05/21 03:33:19;;;;;;;4.38;3.50;;;17.90;99.90;;;;;;4995044;28;20315;-90
2022/05/21 03:35:48;;;;;;;3.45;3.15;;;17.90;99.90;;;;;;4994691;28;20207;-91
2022/05/21 03:38:19;;;;;;;3.78;3.47;;;17.80;99.90;;;;;;4994572;28;20207;-90
2022/05/21 03:40:48;;;;;;;3.63;3.38;;;17.90;99.90;;;;;;4994572;28;20231;-90
2022/05/21 03:43:16;;;;;;;4.60;4.20;;;17.90;99.90;;;;;;4994634;28;20304;-90
2022/05/21 03:45:47;;;;;;;4.80;3.75;;;17.90;99.90;;;;;;4994691;28;20208;-90
2022/05/21 03:48:19;;;;;;;5.57;3.25;;;17.80;99.90;;;;;;4995003;28;20283;-89
2022/05/21 03:50:47;;;;;;;3.78;3.47;;;17.80;99.90;;;;;;4994424;28;20223;-90
2022/05/21 03:53:16;;;;;;;5.60;4.22;;;17.80;99.90;;;;;;4994379;28;20228;-89
2022/05/21 03:55:45;;;;;;;4.28;3.97;;;17.80;99.90;;;;;;4994633;28;20208;-89
2022/05/21 03:58:16;;;;;;;3.50;3.15;;;17.80;99.90;;;;;;4994475;28;20211;-89
2022/05/21 04:00:46;;;;;;;4.30;3.55;;;17.80;99.90;;;;;;4994049;28;20211;-89
2022/05/21 04:03:15;;;;;;;3.72;3.22;;;17.80;99.90;;;;;;4994481;28;20255;-90
2022/05/21 04:05:44;;;;;;;8.07;3.58;;;17.80;99.90;;;;;;4993727;28;20227;-90
2022/05/21 04:08:12;;;;;;;4.63;4.13;;;17.80;99.90;;;;;;4994685;28;20204;-90
2022/05/21 04:10:41;;;;;;;4.53;4.05;;;17.80;99.90;;;;;;4993970;28;20215;-90
2022/05/21 04:13:09;;;;;;;4.00;3.70;;;17.80;99.90;;;;;;4994073;28;20228;-90
2022/05/21 04:15:37;;;;;;;5.82;3.70;;;17.80;99.90;;;;;;4993736;28;20208;-89
2022/05/21 04:18:08;;;;;;;4.03;3.65;;;17.80;99.90;;;;;;4994020;28;20208;-89
2022/05/21 04:20:36;;;;;;;4.07;3.78;;;17.80;99.90;;;;;;4994023;28;20274;-90
2022/05/21 04:23:06;;;;;;;8.15;3.35;;;17.90;99.90;;;;;;4994057;28;20232;-89
2022/05/21 04:25:35;;;;;;;7.18;4.15;;;17.90;99.90;;;;;;4993757;28;20204;-90
2022/05/21 04:28:06;;;;;;;5.10;3.97;;;17.90;99.90;;;;;;4994129;28;20210;-89
2022/05/21 04:30:37;;;;;;;3.47;3.25;;;17.90;99.90;;;;;;4993311;28;20196;-89
2022/05/21 04:33:08;;;;;;;4.13;3.50;;;18.00;99.90;;;;;;4993540;28;20224;-90
2022/05/21 04:38:22;;;;;;;3.40;3.20;;;18.10;99.90;;;;;;4993946;28;20211;-90
2022/05/21 04:40:51;;;;;;;4.63;3.60;;;18.20;99.90;;;;;;4993554;28;20207;-89
2022/05/21 04:43:19;;;;;;;3.08;2.88;;;18.20;99.90;;;;;;4993682;28;20235;-89
2022/05/21 04:45:48;;;;;;;2.95;2.70;;;18.30;99.90;;;;;;4993679;28;20296;-90
2022/05/21 04:48:18;;;;;;;3.28;2.97;;;18.30;99.90;;;;;;4993695;28;20222;-90
2022/05/21 04:50:46;;;;;;;6.35;3.90;;;18.40;99.90;;;;;;4993491;28;20208;-90
2022/05/21 04:53:36;;;;;;;4.47;3.78;;;18.40;99.90;;;;;;4992822;28;20224;-90
2022/05/21 04:56:11;;;;;;;3.22;2.97;;;18.40;99.90;;;;;;4991940;28;20212;-90
2022/05/21 04:59:00;;;;;;;5.75;3.47;;;18.40;99.90;;;;;;4993383;28;20271;-90
2022/05/21 05:01:30;;;;;;;4.13;3.72;;;18.50;99.90;;;;;;4993240;28;20259;-91
2022/05/21 05:04:00;;;;;;;7.43;3.60;;;18.50;99.90;;;;;;4993626;28;20314;-91
2022/05/21 05:06:28;;;;;;;4.40;3.55;;;18.50;99.90;;;;;;4992976;28;20286;-91
2022/05/21 05:08:57;;;;;;;3.88;3.58;;;18.50;99.90;;;;;;4993376;28;20203;-91
2022/05/21 05:11:26;;;;;;;5.55;4.10;;;18.60;99.90;;;;;;4993113;28;20207;-92
2022/05/21 05:13:54;;;;;;;4.43;4.03;;;18.60;99.90;;;;;;4993096;28;20232;-91
2022/05/21 05:16:23;;;;;;;4.18;3.55;;;18.60;99.90;;;;;;4993411;28;20204;-91
2022/05/21 05:18:52;;;;;;;3.80;3.50;;;18.70;99.90;;;;;;4993397;28;20460;-91
2022/05/21 05:21:21;;;;;;;4.47;4.07;;;18.70;99.90;;;;;;4993189;28;20203;-92
2022/05/21 05:23:50;;;;;;;4.00;3.60;;;18.70;99.90;;;;;;4993093;28;20305;-91
2022/05/21 05:26:19;;;;;;;4.30;3.67;;;18.70;99.90;;;;;;4993148;28;20207;-92
2022/05/21 05:28:47;;;;;;;4.82;4.43;;;18.70;99.90;;;;;;4993317;28;20254;-91
2022/05/21 05:31:16;;;;;;;5.07;4.60;;;18.80;99.90;;;;;;4992734;28;20239;-91
2022/05/21 05:33:45;;;;;;;4.68;4.28;;;18.80;99.90;;;;;;4993059;28;20227;-91
2022/05/21 05:36:13;;;;;;;4.55;4.15;;;18.80;99.90;;;;;;4992601;28;20215;-90
2022/05/21 05:38:43;;;;;;;4.70;4.30;;;18.90;99.90;;;;;;4993309;28;20215;-91
2022/05/21 05:41:12;;;;;;;4.50;3.92;;;18.90;99.90;;;;;;4993245;28;20262;-91
2022/05/21 05:43:46;;;;;;;4.47;4.07;;;18.90;99.90;;;;;;4992972;28;20227;-91
2022/05/21 05:46:15;;;;;;;3.92;3.63;;;19.00;99.90;;;;;;4992850;28;20203;-90
2022/05/21 05:48:43;;;;;;;5.43;4.32;;;19.00;99.90;;;;;;4996562;28;20211;-90
2022/05/21 05:51:12;;;;;;;5.05;4.57;;;19.10;99.90;;;;;;4996423;28;20207;-91
2022/05/21 05:53:41;;;;;;;5.30;4.18;;;19.10;99.90;;;;;;4996454;28;20286;-91
2022/05/21 05:56:11;;;;;;;5.32;4.78;;;19.10;99.90;;;;;;4997009;28;20214;-90
2022/05/21 06:01:25;;;;;;;5.20;4.50;;;19.20;99.90;;;;;;4996459;28;20208;-92
2022/05/21 06:03:55;;;;;;;3.83;3.53;;;19.30;99.90;;;;;;4996541;28;20234;-91
2022/05/21 06:06:24;;;;;;;4.70;4.30;;;19.40;99.90;;;;;;4996494;28;20208;-90
2022/05/21 06:08:52;;;;;;;4.80;4.32;;;19.40;99.90;;;;;;4996474;28;20223;-90
2022/05/21 06:11:22;;;;;;;5.38;4.25;;;19.50;99.90;;;;;;4996181;28;20215;-91
2022/05/21 06:13:51;;;;;;;4.07;3.67;;;19.60;99.90;;;;;;4996014;28;20247;-90
2022/05/21 06:16:20;;;;;;;4.60;3.85;;;19.60;99.90;;;;;;4995799;28;20207;-90
2022/05/21 06:18:50;;;;;;;4.63;4.18;;;19.70;99.90;;;;;;4996332;28;20266;-90
2022/05/21 06:21:19;;;;;;;3.63;3.35;;;19.70;99.90;;;;;;4996615;28;20212;-90
2022/05/21 06:23:47;;;;;;;4.43;3.92;;;19.80;99.90;;;;;;4995920;28;20228;-90
2022/05/21 06:26:16;;;;;;;4.88;4.40;;;19.80;99.90;;;;;;4996232;28;20211;-90
2022/05/21 06:28:46;;;;;;;4.38;3.97;;;19.90;99.90;;;;;;4995867;28;20208;-91
2022/05/21 06:31:15;;;;;;;4.22;3.83;;;19.90;99.90;;;;;;4995596;28;20207;-90
2022/05/21 06:33:43;;;;;;;5.10;4.18;;;20.00;99.90;;;;;;4995398;28;20290;-90
2022/05/21 06:36:14;;;;;;;3.90;3.33;;;20.00;99.90;;;;;;4995898;28;20258;-90
2022/05/21 06:38:44;;;;;;;4.18;3.88;;;20.10;99.90;;;;;;4995999;28;20263;-90
2022/05/21 06:41:16;;;;;;;9.75;3.80;;;20.10;99.90;;;;;;4995770;28;20208;-91
2022/05/21 06:44:41;;;;;;;3.25;3.00;;;20.20;99.90;;;;;;4995706;28;20235;-91
2022/05/21 06:47:11;;;;;;;4.82;3.40;;;20.20;99.90;;;;;;4935845;29;20213;-90
2022/05/21 06:49:40;;;;;;;5.97;4.03;;;20.30;99.90;;;;;;4984641;28;20212;-91
2022/05/21 06:52:08;;;;;;;5.30;4.07;;;20.40;99.90;;;;;;4995491;28;20203;-91
2022/05/21 06:54:41;;;;;;;6.38;4.10;;;20.50;99.90;;;;;;4995593;28;20227;-90
2022/05/21 07:01:02;;;;;;;4.40;4.00;;;20.70;99.90;;;;;;4935355;29;20201;-91
2022/05/21 07:03:32;;;;;;;4.13;3.65;;;20.70;99.90;;;;;;4989332;28;20251;-91
2022/05/21 07:08:50;;;;;;;3.70;3.40;;;20.80;99.90;;;;;;4995331;28;20204;-90
2022/05/21 07:11:19;;;;;;;5.72;3.63;;;21.00;99.90;;;;;;4995224;28;20212;-90
2022/05/21 07:13:48;;;;;;;3.03;2.83;;;21.00;99.90;;;;;;4995066;28;20223;-90
2022/05/21 07:16:16;;;;;;;10.88;3.72;;;21.20;99.90;;;;;;4995134;28;20215;-89
2022/05/21 07:18:47;;;;;;;3.72;3.38;;;21.40;99.90;;;;;;4995560;28;20262;-90
2022/05/21 07:21:16;;;;;;;3.58;3.28;;;21.60;99.90;;;;;;4995058;28;20211;-90
2022/05/21 07:23:44;;;;;;;4.65;2.97;;;21.90;99.90;;;;;;4994948;28;20243;-90
2022/05/21 07:26:13;;;;;;;3.90;3.40;;;22.20;99.90;;;;;;4995036;28;20208;-90
2022/05/21 07:28:41;;;;;;;3.08;2.70;;;22.20;99.90;;;;;;4995463;28;20235;-90
2022/05/21 07:33:59;;;;;;;4.00;3.00;;;22.50;99.90;;;;;;4993311;28;20223;-92
2022/05/21 07:36:28;;;;;;;3.90;3.25;;;22.80;99.90;;;;;;4994594;28;20212;-90
2022/05/21 07:38:56;;;;;;;5.03;3.20;;;23.20;99.90;;;;;;4994750;28;20211;-90
2022/05/21 07:41:25;;;;;;;3.70;3.40;;;23.50;99.90;;;;;;4994505;28;20216;-90
2022/05/21 07:43:54;;;;;;;8.23;3.13;;;23.60;99.90;;;;;;4994716;28;20231;-90
2022/05/21 07:46:22;;;;;;;4.13;2.97;;;23.50;99.90;;;;;;4994624;28;20212;-90
2022/05/21 07:48:51;;;;;;;3.58;2.75;;;23.80;99.90;;;;;;4994665;28;20243;-91
2022/05/21 07:51:21;;;;;;;2.80;2.55;;;24.30;99.90;;;;;;4994214;28;20214;-91
2022/05/21 07:53:49;;;;;;;3.10;2.90;;;24.70;99.90;;;;;;4994115;28;20278;-91
2022/05/21 07:56:18;;;;;;;3.33;2.60;;;25.00;99.90;;;;;;4994671;28;20210;-90
2022/05/21 07:58:49;;;;;;;2.95;2.67;;;25.00;99.90;;;;;;4994716;28;20208;-90
2022/05/21 08:01:17;;;;;;;3.08;2.80;;;25.60;99.90;;;;;;4994303;28;20199;-91
2022/05/21 08:03:47;;;;;;;3.22;2.83;;;26.20;99.90;;;;;;4994115;28;20227;-91
2022/05/21 08:06:17;;;;;;;2.83;2.63;;;26.40;99.90;;;;;;4994339;28;20204;-91
2022/05/21 08:08:51;;;;;;;3.20;2.80;;;27.10;99.90;;;;;;4994431;28;20204;-91
2022/05/21 08:11:19;;;;;;;2.80;2.55;;;27.90;99.90;;;;;;4993837;28;20208;-91
2022/05/21 08:13:48;;;;;;;5.05;3.03;;;28.20;99.90;;;;;;4994104;28;20219;-91
2022/05/21 08:16:17;;;;;;;3.78;2.72;;;28.40;99.90;;;;;;4994038;28;20207;-91
2022/05/21 08:18:45;;;;;;;3.22;2.60;;;28.60;99.90;;;;;;4994047;28;20212;-90
2022/05/21 08:21:14;;;;;;;2.75;2.30;;;29.10;99.90;;;;;;4993905;28;20222;-92
2022/05/21 08:29:15;;;;;;;3.97;2.70;;;27.60;99.90;;;;;;4994168;28;20211;-91
2022/05/21 08:31:44;;;;;;;2.58;2.40;;;26.90;99.90;;;;;;4993496;28;20248;-91
2022/05/21 08:34:23;;;;;;;;;;;;;;;;;;;;;
2022/05/21 08:37:16;;;;;;;3.95;2.53;;;26.60;99.90;;;;;;4992597;28;20222;-94
2022/05/21 08:40:04;;;;;;;2.35;2.15;;;27.10;99.90;;;;;;4993591;28;20232;-90
2022/05/21 08:42:43;;;;;;;2.10;1.90;;;27.30;99.90;;;;;;4993795;28;20203;-92
2022/05/21 08:45:21;;;;;;;1.98;1.88;;;26.80;99.90;;;;;;4994019;28;20239;-92
2022/05/21 08:47:59;;;;;;;2.67;2.10;;;26.80;99.90;;;;;;4996296;28;20208;-94
2022/05/21 08:50:33;;;;;;;2.80;2.13;;;27.20;99.90;;;;;;4995149;28;20250;-91
2022/05/21 08:53:06;;;;;;;2.10;1.90;;;27.50;98.90;;;;;;4993561;28;20231;-90
2022/05/21 08:55:38;;;;;;;2.15;2.05;;;27.80;98.50;;;;;;4993320;28;20195;-91
2022/05/21 08:58:16;;;;;;;2.67;2.47;;;28.30;99.40;;;;;;4993702;28;20210;-91
2022/05/21 09:00:47;;;;;;;2.45;2.08;;;27.60;98.80;;;;;;4993116;28;20212;-91
2022/05/21 09:03:21;;;;;;;3.28;2.40;;;27.00;99.40;;;;;;4993510;28;20278;-92
2022/05/21 09:05:56;;;;;;;2.20;2.10;;;26.70;99.90;;;;;;4993389;28;20222;-92
2022/05/21 09:08:42;;;;;;;;;;;;;;;;;;;;;
2022/05/21 09:11:34;;;;;;;2.95;2.55;;;26.30;99.90;;;;;;4993247;28;20202;-91
2022/05/21 09:14:11;;;;;;;4.15;2.22;;;25.50;99.90;;;;;;4992765;28;20227;-91
2022/05/21 09:17:00;;;;;;;3.42;2.63;;;25.50;99.90;;;;;;4993417;28;20274;-90
2022/05/21 09:19:35;;;;;;;6.18;2.88;;;26.30;99.90;;;;;;4993698;28;20235;-91
2022/05/21 09:22:05;;;;;;;3.50;2.20;;;27.00;99.90;;;;;;4994293;28;20227;-91
2022/05/21 09:24:39;;;;;;;5.22;2.53;;;27.40;99.60;;;;;;4997186;28;20224;-93
2022/05/21 09:27:31;;;;;;;2.00;1.77;;;27.30;99.80;;;;;;4997420;28;20211;-90
2022/05/21 09:30:23;;;;;;;2.25;1.98;;;27.50;99.80;;;;;;4997196;28;20203;-92
2022/05/21 09:32:54;;;;;;;2.92;2.47;;;27.30;97.50;;;;;;4997574;28;20228;-92
2022/05/21 09:35:25;;;;;;;1.80;1.65;;;27.00;97.60;;;;;;4996492;28;20223;-91
2022/05/21 09:37:53;;;;;;;2.70;2.40;;;26.50;97.10;;;;;;4996825;28;20204;-92
2022/05/21 09:40:29;;;;;;;2.63;2.22;;;26.00;98.10;;;;;;4996575;28;20203;-91
2022/05/21 09:45:46;;;;;;;2.55;2.22;;;25.80;99.10;;;;;;4997112;28;20238;-90
2022/05/21 09:48:22;;;;;;;2.15;2.00;;;26.50;98.80;;;;;;4997073;28;20204;-91
2022/05/21 09:50:53;;;;;;;3.15;1.90;;;26.90;95.90;;;;;;4996696;28;20210;-91
2022/05/21 09:53:28;;;;;;;2.00;1.90;;;27.20;95.10;;;;;;4996559;28;20223;-92
2022/05/21 09:55:58;;;;;;;2.67;1.88;;;27.90;93.70;;;;;;4996593;28;20322;-91
2022/05/21 09:58:27;;;;;;;1.77;1.67;;;28.50;92.70;;;;;;4996898;28;20272;-91
2022/05/21 10:00:59;;;;;;;2.80;1.85;;;28.40;92.30;;;;;;4996817;28;20204;-91
2022/05/21 10:03:50;;;;;;;1.98;1.88;;;27.90;92.30;;;;;;4996445;28;20227;-91
2022/05/21 10:06:23;;;;;;;1.90;1.80;;;28.10;91.20;;;;;;4996219;28;20266;-92
2022/05/21 10:11:50;;;;;;;1.88;1.77;;;27.70;89.30;;;;;;4996439;28;20239;-92
2022/05/21 10:14:23;;;;;;;2.13;1.92;;;27.00;88.90;;;;;;4996515;28;20293;-92
2022/05/21 10:16:58;;;;;;;2.97;2.25;;;26.80;90.40;;;;;;4996562;28;20246;-94
2022/05/21 10:19:36;;;;;;;2.90;2.70;;;26.80;90.80;;;;;;4996554;28;20211;-91
2022/05/21 10:22:20;;;;;;;2.15;1.98;;;26.90;90.60;;;;;;4995820;28;20200;-91
2022/05/21 10:25:09;;;;;;;1.67;1.58;;;27.00;90.70;;;;;;4996178;28;20317;-92
2022/05/21 10:28:15;;;;;;;4.47;1.88;;;27.30;88.90;;;;;;4996105;28;20199;-91
2022/05/21 10:31:05;;;;;;;1.60;1.50;;;27.40;89.90;;;;;;4995914;28;20207;-91
2022/05/21 10:33:45;;;;;;;1.98;1.88;;;26.70;89.00;;;;;;4995661;28;20228;-91
2022/05/21 10:36:35;;;;;;;1.63;1.52;;;26.50;88.30;;;;;;4995457;28;20274;-92
2022/05/21 10:39:16;;;;;;;1.92;1.83;;;26.60;88.00;;;;;;4995955;28;20227;-91
2022/05/21 10:42:12;;;;;;;1.88;1.77;;;27.00;87.90;;;;;;4995627;28;20238;-92
2022/05/21 10:44:53;;;;;;;4.22;2.00;;;27.10;87.30;;;;;;4995754;28;20227;-92
2022/05/21 10:47:44;;;;;;;2.20;2.03;;;27.00;87.30;;;;;;4995944;28;20212;-91
2022/05/21 10:50:25;;;;;;;2.65;2.13;;;27.60;87.20;;;;;;4995082;28;20228;-93
2022/05/21 10:53:21;;;;;;;2.03;1.88;;;27.40;87.30;;;;;;4995893;28;20228;-91
2022/05/21 10:56:02;;;;;;;3.63;2.13;;;27.80;86.50;;;;;;4966445;28;20239;-91
2022/05/21 10:58:54;;;;;;;2.15;2.00;;;28.30;85.50;;;;;;4995771;28;20212;-92
2022/05/21 11:01:32;;;;;;;1.83;1.73;;;28.50;83.70;;;;;;4995295;28;20254;-91
2022/05/21 11:04:17;;;;;;;2.00;1.90;;;28.80;83.50;;;;;;4995286;28;20235;-92
2022/05/21 11:07:11;;;;;;;1.65;1.50;;;28.30;81.50;;;;;;4995136;28;20207;-92
2022/05/21 11:09:45;;;;;;;2.90;2.05;;;27.50;82.30;;;;;;4995250;28;20212;-91
2022/05/21 11:12:17;;;;;;;2.25;2.10;;;27.30;83.50;;;;;;4995228;28;20208;-92
2022/05/21 11:14:51;;;;;;;1.88;1.67;;;27.30;84.30;;;;;;4995383;28;20231;-96
2022/05/21 11:17:30;;;;;;;2.45;2.25;;;27.10;80.80;;;;;;4995427;28;20211;-91
2022/05/21 11:20:04;;;;;;;2.67;1.77;;;27.00;81.50;;;;;;4994989;28;20262;-91
2022/05/21 11:22:40;;;;;;;1.70;1.60;;;27.30;80.40;;;;;;4995144;28;20208;-92
2022/05/21 11:25:14;;;;;;;3.53;1.90;;;27.30;78.90;;;;;;4995437;28;20199;-91
2022/05/21 11:27:49;;;;;;;2.80;1.92;;;27.30;78.90;;;;;;4995251;28;20210;-91
2022/05/21 11:30:20;;;;;;;2.88;1.70;;;27.10;78.60;;;;;;4994527;28;20207;-92
2022/05/21 11:38:35;;;;;;;2.75;1.73;;;26.70;77.90;;;;;;4995137;28;20243;-91
2022/05/21 11:47:19;;;;;;;1.33;1.23;;;27.10;77.20;;;;;;4994495;28;20270;-92
2022/05/21 11:50:07;;;;;;;1.83;1.73;;;27.10;76.00;;;;;;4994476;28;20218;-92
2022/05/21 11:52:56;;;;;;;1.88;1.77;;;27.40;76.30;;;;;;4994532;28;20211;-92
2022/05/21 11:55:28;;;;;;;4.32;2.05;;;28.00;76.10;;;;;;4994469;28;20220;-92
2022/05/21 11:57:58;;;;;;;3.17;2.25;;;27.90;73.90;;;;;;4994368;28;20220;-92
2022/05/21 12:00:46;;;;;;;1.75;1.65;;;28.00;75.40;;;;;;4994291;28;20274;-92
2022/05/21 12:03:21;;;;;;;2.88;2.15;;;27.70;75.40;;;;;;4994672;28;20228;-91
2022/05/21 12:06:18;;;;;;;2.10;1.48;;;27.70;74.30;;;;;;4994262;28;20207;-92
2022/05/21 12:08:50;;;;;;;1.80;1.65;;;27.80;72.70;;;;;;4992884;28;20225;-93
2022/05/21 12:11:42;;;;;;;2.58;1.35;;;27.90;72.90;;;;;;4994072;28;20211;-92
2022/05/21 12:14:25;;;;;;;2.63;2.42;;;27.80;71.70;;;;;;4994037;28;20235;-93
2022/05/21 12:16:59;;;;;;;2.15;1.95;;;27.80;72.80;;;;;;4994135;28;20282;-91
2022/05/21 12:20:04;;;;;;;1.77;1.63;;;27.90;71.20;;;;;;4994138;28;20211;-91
2022/05/21 12:22:41;;;;;;;1.73;1.63;;;28.00;71.10;;;;;;4990791;28;20203;-91
2022/05/21 12:25:22;;;;;;;2.05;1.85;;;28.10;69.90;;;;;;4993562;28;20199;-92
2022/05/21 12:27:58;;;;;;;2.65;1.70;;;27.90;70.80;;;;;;4994185;28;20212;-91
2022/05/21 12:30:29;;;;;;;1.70;1.60;;;28.10;70.40;;;;;;4993819;28;20215;-91
2022/05/21 12:32:58;;;;;;;2.40;1.55;;;27.70;70.00;;;;;;4993883;28;20235;-91
2022/05/21 12:35:48;;;;;;;1.75;1.50;;;27.30;70.40;;;;;;4976506;28;20222;-91
2022/05/21 12:38:27;;;;;;;2.03;1.92;;;27.30;70.80;;;;;;4993253;28;20208;-92
2022/05/21 12:41:08;;;;;;;1.95;1.40;;;27.10;70.40;;;;;;4993559;28;20204;-91
2022/05/21 12:43:47;;;;;;;2.05;1.83;;;27.50;70.30;;;;;;4993658;28;20254;-91
2022/05/21 12:46:24;;;;;;;3.42;1.50;;;27.70;68.60;;;;;;4994060;28;20214;-91
2022/05/21 12:48:54;;;;;;;1.77;1.60;;;27.20;69.70;;;;;;4993808;28;20224;-91
2022/05/21 12:51:34;;;;;;;1.55;1.30;;;27.50;70.10;;;;;;4993580;28;20212;-91
2022/05/21 12:54:19;;;;;;;1.50;1.40;;;27.70;69.00;;;;;;4993341;28;20226;-91
2022/05/21 12:56:48;;;;;;;3.03;1.45;;;27.30;68.50;;;;;;4993462;28;20227;-91
2022/05/21 12:59:20;;;;;;;1.50;1.40;;;27.30;68.20;;;;;;4993991;28;20208;-92
2022/05/21 13:01:55;;;;;;;1.70;1.60;;;27.50;68.30;;;;;;4993810;28;20220;-92
2022/05/21 13:04:31;;;;;;;1.40;1.30;;;27.60;68.00;;;;;;4993407;28;20235;-92
2022/05/21 13:07:04;;;;;;;1.58;1.48;;;27.80;68.50;;;;;;4993396;28;20218;-91
2022/05/21 13:09:38;;;;;;;1.60;1.50;;;27.50;67.30;;;;;;4993738;28;20204;-91
2022/05/21 13:12:15;;;;;;;1.70;1.52;;;27.30;67.80;;;;;;4993208;28;20296;-92
2022/05/21 13:14:47;;;;;;;1.50;1.40;;;27.20;68.40;;;;;;4993367;28;20249;-91
2022/05/21 13:17:31;;;;;;;1.50;1.40;;;27.20;68.10;;;;;;4993374;28;20235;-91
2022/05/21 13:20:12;;;;;;;1.73;1.63;;;26.80;68.50;;;;;;4993625;28;20203;-91
2022/05/21 13:23:04;;;;;;;1.55;1.30;;;26.90;69.60;;;;;;4992876;28;20215;-91
2022/05/21 13:25:33;;;;;;;1.90;1.75;;;27.30;67.20;;;;;;4993233;28;20269;-91
2022/05/21 13:28:01;;;;;;;1.30;1.20;;;27.30;66.90;;;;;;4993272;28;20208;-91
2022/05/21 13:30:34;;;;;;;1.77;1.65;;;27.50;67.10;;;;;;4992646;28;20236;-91
2022/05/21 13:33:13;;;;;;;1.27;1.27;;;27.70;65.70;;;;;;4992978;28;20251;-91
2022/05/21 13:35:44;;;;;;;2.08;1.55;;;27.30;63.60;;;;;;4992989;28;20207;-91
2022/05/21 13:38:14;;;;;;;2.45;1.40;;;27.30;64.30;;;;;;4993178;28;20212;-91
2022/05/21 13:40:50;;;;;;;1.98;1.42;;;27.30;62.90;;;;;;4992472;28;20228;-91
2022/05/21 13:43:22;;;;;;;1.85;1.60;;;27.10;63.60;;;;;;4992874;28;20277;-92
2022/05/21 13:45:57;;;;;;;2.65;1.50;;;27.20;63.90;;;;;;4993335;28;20214;-91
2022/05/21 13:48:29;;;;;;;1.40;1.30;;;27.30;64.50;;;;;;4993603;28;20214;-92
2022/05/21 13:50:58;;;;;;;2.35;1.60;;;27.10;63.70;;;;;;4992889;28;20262;-90
2022/05/21 13:53:28;;;;;;;1.60;1.50;;;26.90;65.20;;;;;;4992932;28;20234;-90
2022/05/21 13:55:58;;;;;;;1.77;1.67;;;27.10;65.10;;;;;;4993022;28;20212;-90
2022/05/21 13:58:33;;;;;;;1.95;1.50;;;27.40;64.70;;;;;;4993026;28;20216;-91
2022/05/21 14:01:06;;;;;;;3.10;1.50;;;27.20;63.60;;;;;;4992832;28;20211;-91
2022/05/21 14:03:45;;;;;;;1.30;1.17;;;26.80;63.50;;;;;;4992988;28;20228;-92